createdAt,value
2019-04-01T00:00:23.553Z,54.88
2019-04-01T00:02:53.583Z,55.29
2019-04-01T00:05:23.642Z,55.30
2019-04-01T00:07:53.562Z,55.45
2019-04-01T00:10:23.622Z,55.12
2019-04-01T00:12:53.461Z,54.71
2019-04-01T00:15:23.406Z,54.66
2019-04-01T00:17:53.430Z,55.03
2019-04-01T00:20:23.350Z,54.77
2019-04-01T00:22:53.459Z,54.82
2019-04-01T00:25:24.613Z,54.71
2019-04-01T00:27:54.537Z,54.13
2019-04-01T00:30:24.468Z,54.32
2019-04-01T00:32:54.451Z,54.61
2019-04-01T00:35:24.311Z,54.92
2019-04-01T00:37:54.307Z,55.18
2019-04-01T00:40:24.212Z,55.98
2019-04-01T00:43:05.996Z,56.27
2019-04-01T00:45:36.744Z,56.58
2019-04-01T00:48:06.732Z,56.76
2019-04-01T00:50:36.681Z,56.43
2019-04-01T00:53:06.725Z,56.02
2019-04-01T00:55:36.743Z,56.43
2019-04-01T00:58:06.568Z,56.01
2019-04-01T01:00:36.561Z,56.29
2019-04-01T01:03:06.603Z,56.93
2019-04-01T01:05:36.629Z,57.29
2019-04-01T01:08:07.574Z,56.32
2019-04-01T01:10:37.643Z,56.46
2019-04-01T01:13:07.589Z,56.66
2019-04-01T01:15:37.521Z,56.55
2019-04-01T01:18:07.506Z,57.17
2019-04-01T01:20:37.527Z,57.35
2019-04-01T01:23:07.529Z,57.36
2019-04-01T01:25:37.457Z,57.36
2019-04-01T01:28:07.291Z,57.19
2019-04-01T01:30:37.203Z,57.85
2019-04-01T01:33:07.126Z,58.33
2019-04-01T01:35:37.092Z,58.31
2019-04-01T01:38:06.953Z,57.94
2019-04-01T01:40:36.976Z,58.02
2019-04-01T01:43:06.844Z,58.43
2019-04-01T01:45:36.781Z,59.19
2019-04-01T01:48:06.784Z,59.53
2019-04-01T01:50:36.883Z,59.56
2019-04-01T01:53:06.911Z,58.87
2019-04-01T01:55:36.783Z,59.12
2019-04-01T01:58:06.778Z,58.42
2019-04-01T02:00:37.448Z,58.70
2019-04-01T02:03:07.384Z,57.86
2019-04-01T02:05:37.307Z,57.68
2019-04-01T02:08:07.298Z,57.36
2019-04-01T02:10:37.262Z,57.70
2019-04-01T02:13:07.210Z,58.66
2019-04-01T02:15:37.124Z,59.51
2019-04-01T02:18:07.133Z,59.32
2019-04-01T02:20:37.178Z,59.59
2019-04-01T02:23:07.020Z,59.78
2019-04-01T02:25:37.232Z,59.96
2019-04-01T02:28:07.083Z,60.74
2019-04-01T02:30:37.060Z,61.25
2019-04-01T02:33:06.971Z,61.77
2019-04-01T02:35:36.972Z,60.52
2019-04-01T02:38:06.802Z,60.67
2019-04-01T02:40:37.433Z,60.69
2019-04-01T02:43:07.405Z,60.72
2019-04-01T02:45:37.412Z,61.69
2019-04-01T02:48:07.329Z,62.71
2019-04-01T02:50:37.331Z,61.97
2019-04-01T02:53:08.398Z,61.66
2019-04-01T02:55:38.369Z,61.79
2019-04-01T02:58:09.381Z,62.05
2019-04-01T03:00:39.314Z,62.05
2019-04-01T03:03:09.262Z,62.22
2019-04-01T03:05:39.110Z,62.84
2019-04-01T03:08:09.049Z,63.44
2019-04-01T03:10:38.988Z,64.11
2019-04-01T03:13:08.993Z,63.57
2019-04-01T03:15:39.050Z,63.01
2019-04-01T03:18:09.069Z,63.83
2019-04-01T03:20:38.898Z,64.12
2019-04-01T03:23:08.908Z,64.04
2019-04-01T03:25:38.928Z,63.62
2019-04-01T03:28:08.869Z,64.20
2019-04-01T03:30:38.816Z,63.60
2019-04-01T03:33:08.752Z,63.88
2019-04-01T03:35:38.576Z,63.87
2019-04-01T03:38:08.493Z,63.85
2019-04-01T03:40:38.450Z,63.31
2019-04-01T03:43:08.369Z,63.44
2019-04-01T03:45:38.270Z,63.30
2019-04-01T03:48:08.223Z,63.25
2019-04-01T03:50:38.185Z,63.58
2019-04-01T03:53:08.163Z,63.40
2019-04-01T03:55:38.183Z,64.06
2019-04-01T03:58:09.574Z,63.93
2019-04-01T04:00:39.463Z,64.19
2019-04-01T04:03:09.440Z,65.31
2019-04-01T04:05:39.472Z,64.97
2019-04-01T04:08:09.463Z,65.25
2019-04-01T04:10:39.377Z,64.93
2019-04-01T04:13:09.382Z,64.23
2019-04-01T04:15:39.290Z,64.04
2019-04-01T04:18:09.306Z,64.80
2019-04-01T04:20:39.133Z,64.39
2019-04-01T04:23:09.088Z,63.76
2019-04-01T04:25:39.018Z,63.91
2019-04-01T04:28:08.925Z,62.92
2019-04-01T04:30:38.802Z,63.82
2019-04-01T04:33:08.796Z,63.62
2019-04-01T04:35:38.718Z,65.52
2019-04-01T04:38:08.628Z,64.83
2019-04-01T04:40:40.831Z,64.63
2019-04-01T04:43:10.100Z,65.59
2019-04-01T04:45:40.014Z,66.08
2019-04-01T04:48:09.934Z,66.38
2019-04-01T04:50:39.841Z,66.42
2019-04-01T04:53:09.769Z,66.09
2019-04-01T04:55:39.791Z,65.96
2019-04-01T04:58:09.778Z,65.58
2019-04-01T05:00:39.693Z,65.35
2019-04-01T05:03:09.612Z,65.61
2019-04-01T05:05:39.691Z,65.33
2019-04-01T05:08:09.704Z,65.60
2019-04-01T05:10:39.626Z,66.05
2019-04-01T05:13:09.550Z,66.45
2019-04-01T05:15:39.545Z,66.57
2019-04-01T05:18:09.510Z,65.52
2019-04-01T05:20:40.820Z,66.00
2019-04-01T05:23:11.770Z,66.76
2019-04-01T05:25:43.649Z,67.32
2019-04-01T05:28:16.771Z,68.14
2019-04-01T05:30:48.966Z,68.39
2019-04-01T05:33:22.355Z,67.26
2019-04-01T05:35:52.472Z,67.13
2019-04-01T05:38:23.449Z,66.88
2019-04-01T05:40:53.440Z,66.77
2019-04-01T05:43:23.957Z,66.94
2019-04-01T05:45:53.863Z,66.53
2019-04-01T05:48:26.432Z,66.65
2019-04-01T05:50:56.339Z,65.88
2019-04-01T05:53:26.773Z,65.87
2019-04-01T05:55:56.756Z,65.93
2019-04-01T05:58:26.766Z,65.47
2019-04-01T06:01:01.915Z,65.50
2019-04-01T06:03:31.912Z,65.28
2019-04-01T06:06:01.912Z,65.06
2019-04-01T06:08:32.620Z,65.04
2019-04-01T06:11:02.688Z,65.07
2019-04-01T06:13:32.729Z,64.73
2019-04-01T06:16:02.737Z,64.61
2019-04-01T06:18:32.762Z,64.60
2019-04-01T06:21:02.741Z,64.57
2019-04-01T06:23:32.814Z,64.45
2019-04-01T06:26:02.819Z,64.69
2019-04-01T06:28:32.719Z,64.64
2019-04-01T06:31:02.762Z,64.68
2019-04-01T06:33:32.804Z,64.25
2019-04-01T06:36:02.855Z,64.35
2019-04-01T06:38:32.853Z,64.03
2019-04-01T06:41:02.887Z,63.65
2019-04-01T06:43:32.863Z,63.43
2019-04-01T06:46:02.897Z,63.73
2019-04-01T06:48:32.910Z,63.97
2019-04-01T06:51:02.955Z,62.94
2019-04-01T06:53:32.981Z,62.44
2019-04-01T06:56:02.833Z,62.29
2019-04-01T06:58:32.758Z,61.84
2019-04-01T07:01:02.765Z,62.03
2019-04-01T07:03:32.693Z,62.50
2019-04-01T07:06:02.649Z,62.80
2019-04-01T07:08:33.618Z,62.41
2019-04-01T07:11:03.705Z,62.51
2019-04-01T07:13:33.909Z,61.78
2019-04-01T07:16:15.529Z,62.08
2019-04-01T07:18:36.904Z,62.06
2019-04-01T07:21:06.953Z,61.36
2019-04-01T07:23:36.871Z,60.92
2019-04-01T07:26:06.885Z,60.82
2019-04-01T07:28:36.877Z,60.34
2019-04-01T07:31:06.886Z,60.12
2019-04-01T07:33:36.879Z,61.02
2019-04-01T07:36:06.795Z,60.61
2019-04-01T07:38:36.771Z,59.82
2019-04-01T07:41:06.843Z,59.50
2019-04-01T07:43:36.809Z,60.06
2019-04-01T07:46:08.262Z,60.31
2019-04-01T07:48:38.791Z,59.37
2019-04-01T07:51:09.155Z,59.59
2019-04-01T07:53:39.601Z,58.40
2019-04-01T07:56:09.614Z,57.84
2019-04-01T07:58:39.632Z,57.87
2019-04-01T08:01:09.617Z,58.19
2019-04-01T08:03:41.946Z,58.82
2019-04-01T08:06:11.441Z,59.31
2019-04-01T08:08:41.471Z,58.84
2019-04-01T08:11:11.441Z,58.02
2019-04-01T08:13:41.457Z,59.46
2019-04-01T08:16:11.484Z,59.04
2019-04-01T08:18:41.586Z,58.47
2019-04-01T08:21:11.750Z,56.74
2019-04-01T08:23:41.763Z,55.37
2019-04-01T08:26:11.864Z,55.09
2019-04-01T08:28:42.782Z,54.25
2019-04-01T08:31:13.417Z,54.24
2019-04-01T08:33:44.468Z,55.44
2019-04-01T08:36:14.437Z,56.20
2019-04-01T08:38:44.378Z,55.09
2019-04-01T08:41:14.468Z,54.79
2019-04-01T08:43:44.502Z,54.27
2019-04-01T08:46:14.531Z,53.10
2019-04-01T08:48:44.527Z,52.50
2019-04-01T08:51:14.548Z,53.73
2019-04-01T08:53:44.940Z,54.26
2019-04-01T08:56:14.908Z,52.94
2019-04-01T08:58:44.917Z,52.52
2019-04-01T09:01:14.991Z,51.91
2019-04-01T09:03:45.084Z,51.45
2019-04-01T09:06:15.071Z,50.91
2019-04-01T09:08:46.758Z,51.00
2019-04-01T09:11:39.099Z,51.24
2019-04-01T09:14:08.997Z,51.00
2019-04-01T09:16:39.746Z,50.65
2019-04-01T09:19:10.207Z,50.89
2019-04-01T09:21:40.189Z,51.08
2019-04-01T09:24:10.183Z,50.42
2019-04-01T09:26:40.177Z,50.67
2019-04-01T09:29:10.194Z,51.12
2019-04-01T09:31:40.176Z,50.39
2019-04-01T09:34:10.150Z,49.80
2019-04-01T09:36:40.208Z,50.05
2019-04-01T09:39:10.199Z,50.65
2019-04-01T09:41:40.137Z,49.36
2019-04-01T09:44:10.050Z,49.17
2019-04-01T09:46:39.964Z,48.13
2019-04-01T09:49:09.959Z,48.14
2019-04-01T09:51:48.576Z,47.99
2019-04-01T09:54:11.754Z,46.96
2019-04-01T09:56:41.698Z,47.62
2019-04-01T09:59:11.788Z,49.40
2019-04-01T10:01:41.723Z,49.06
2019-04-01T10:04:11.671Z,49.27
2019-04-01T10:06:41.662Z,48.84
2019-04-01T10:09:11.756Z,49.15
2019-04-01T10:11:41.766Z,49.23
2019-04-01T10:14:11.673Z,48.08
2019-04-01T10:16:41.655Z,48.02
2019-04-01T10:19:11.684Z,47.27
2019-04-01T10:21:45.063Z,47.40
2019-04-01T10:24:13.317Z,47.51
2019-04-01T10:26:43.219Z,47.22
2019-04-01T10:29:13.222Z,48.00
2019-04-01T10:31:43.199Z,46.41
2019-04-01T10:34:13.221Z,45.56
2019-04-01T10:36:46.051Z,47.06
2019-04-01T10:39:16.012Z,46.79
2019-04-01T10:41:45.843Z,46.37
2019-04-01T10:44:15.788Z,45.47
2019-04-01T10:46:45.830Z,45.71
2019-04-01T10:49:15.863Z,47.21
2019-04-01T10:51:45.878Z,46.43
2019-04-01T10:54:15.974Z,46.51
2019-04-01T10:56:45.961Z,45.59
2019-04-01T10:59:15.840Z,46.15
2019-04-01T11:01:46.010Z,45.69
2019-04-01T11:04:16.039Z,46.56
2019-04-01T11:06:46.184Z,47.60
2019-04-01T11:09:16.086Z,46.73
2019-04-01T11:11:45.907Z,46.73
2019-04-01T11:14:15.771Z,45.34
2019-04-01T11:16:46.235Z,44.74
2019-04-01T11:19:16.560Z,43.76
2019-04-01T11:21:46.508Z,44.89
2019-04-01T11:24:16.526Z,44.70
2019-04-01T11:26:46.455Z,46.08
2019-04-01T11:29:16.477Z,45.02
2019-04-01T11:31:46.500Z,44.99
2019-04-01T11:34:16.637Z,44.96
2019-04-01T11:36:46.470Z,45.89
2019-04-01T11:39:16.536Z,44.69
2019-04-01T11:41:46.530Z,44.75
2019-04-01T11:44:16.579Z,44.83
2019-04-01T11:46:46.559Z,45.87
2019-04-01T11:49:16.858Z,44.05
2019-04-01T11:51:46.894Z,43.13
2019-04-01T11:54:16.966Z,43.30
2019-04-01T11:56:46.931Z,44.70
2019-04-01T11:59:16.888Z,44.39
2019-04-01T12:01:47.528Z,44.63
2019-04-01T12:04:17.763Z,44.81
2019-04-01T12:06:47.591Z,44.85
2019-04-01T12:09:17.461Z,44.04
2019-04-01T12:11:47.408Z,44.30
2019-04-01T12:14:17.348Z,45.28
2019-04-01T12:16:47.267Z,43.69
2019-04-01T12:19:18.368Z,42.76
2019-04-01T12:21:48.480Z,42.40
2019-04-01T12:24:18.570Z,43.45
2019-04-01T12:26:48.469Z,43.28
2019-04-01T12:29:18.466Z,43.65
2019-04-01T12:31:48.299Z,44.42
2019-04-01T12:34:18.329Z,43.91
2019-04-01T12:36:49.093Z,42.42
2019-04-01T12:39:19.231Z,41.14
2019-04-01T12:41:49.445Z,40.33
2019-04-01T12:44:19.488Z,41.45
2019-04-01T12:46:49.410Z,41.26
2019-04-01T12:49:19.440Z,41.10
2019-04-01T12:51:49.935Z,41.60
2019-04-01T12:54:20.186Z,41.62
2019-04-01T12:56:50.142Z,40.11
2019-04-01T12:59:20.074Z,39.47
2019-04-01T13:01:49.973Z,39.85
2019-04-01T13:04:20.109Z,39.13
2019-04-01T13:06:51.560Z,38.64
2019-04-01T13:09:22.685Z,39.08
2019-04-01T13:11:52.628Z,39.68
2019-04-01T13:14:22.568Z,39.40
2019-04-01T13:16:52.719Z,39.74
2019-04-01T13:19:23.015Z,41.10
2019-04-01T13:21:53.055Z,40.35
2019-04-01T13:24:23.080Z,42.45
2019-04-01T13:26:53.027Z,41.08
2019-04-01T13:29:24.073Z,40.93
2019-04-01T13:31:54.169Z,39.58
2019-04-01T13:34:24.164Z,38.31
2019-04-01T13:36:54.088Z,38.15
2019-04-01T13:39:24.081Z,40.19
2019-04-01T13:41:56.171Z,39.24
2019-04-01T13:44:36.648Z,38.21
2019-04-01T13:46:57.130Z,39.85
2019-04-01T13:49:27.057Z,40.44
2019-04-01T13:51:57.004Z,40.65
2019-04-01T13:54:26.877Z,39.45
2019-04-01T13:56:56.896Z,39.55
2019-04-01T13:59:26.898Z,39.82
2019-04-01T14:01:57.292Z,40.26
2019-04-01T14:04:27.734Z,39.85
2019-04-01T14:06:57.869Z,40.41
2019-04-01T14:09:30.833Z,38.31
2019-04-01T14:12:00.894Z,38.61
2019-04-01T14:14:30.883Z,39.24
2019-04-01T14:17:00.814Z,38.15
2019-04-01T14:19:30.731Z,38.13
2019-04-01T14:22:00.838Z,39.32
2019-04-01T14:24:30.706Z,38.06
2019-04-01T14:27:01.234Z,37.54
2019-04-01T14:29:31.086Z,38.34
2019-04-01T14:32:01.010Z,38.01
2019-04-01T14:34:30.952Z,38.52
2019-04-01T14:37:00.817Z,38.40
2019-04-01T14:39:34.625Z,39.21
2019-04-01T14:42:43.240Z,38.48
2019-04-01T14:45:13.337Z,39.00
2019-04-01T14:47:56.519Z,39.35
2019-04-01T14:50:15.005Z,38.83
2019-04-01T14:52:44.917Z,38.50
2019-04-01T14:55:14.951Z,38.81
2019-04-01T14:57:44.924Z,37.53
2019-04-01T15:00:15.907Z,38.15
2019-04-01T15:02:46.097Z,39.04
2019-04-01T15:05:16.114Z,38.72
2019-04-01T15:07:46.942Z,37.60
2019-04-01T15:10:17.465Z,37.12
2019-04-01T15:12:47.397Z,37.21
2019-04-01T15:15:17.430Z,37.95
2019-04-01T15:17:47.615Z,37.46
2019-04-01T15:20:19.209Z,37.68
2019-04-01T15:22:49.225Z,38.25
2019-04-01T15:25:19.311Z,37.66
2019-04-01T15:27:49.159Z,37.72
2019-04-01T15:30:19.142Z,36.97
2019-04-01T15:32:49.007Z,38.08
2019-04-01T15:35:19.037Z,37.85
2019-04-01T15:37:49.031Z,38.39
2019-04-01T15:40:19.381Z,37.86
2019-04-01T15:42:49.218Z,38.20
2019-04-01T15:45:19.303Z,38.31
2019-04-01T15:47:49.185Z,37.54
2019-04-01T15:50:28.318Z,37.98
2019-04-01T15:52:50.837Z,37.39
2019-04-01T15:55:22.244Z,36.71
2019-04-01T15:57:52.172Z,38.10
2019-04-01T16:00:22.433Z,37.79
2019-04-01T16:02:52.452Z,36.72
2019-04-01T16:05:22.481Z,37.61
2019-04-01T16:07:52.510Z,37.95
2019-04-01T16:10:22.473Z,38.29
2019-04-01T16:12:52.495Z,38.27
2019-04-01T16:15:22.432Z,37.73
2019-04-01T16:17:54.030Z,37.69
2019-04-01T16:20:25.235Z,37.47
2019-04-01T16:22:56.064Z,37.48
2019-04-01T16:25:26.151Z,37.34
2019-04-01T16:27:56.201Z,37.79
2019-04-01T16:30:27.220Z,38.53
2019-04-01T16:32:58.554Z,38.22
2019-04-01T16:35:28.720Z,38.54
2019-04-01T16:37:59.457Z,38.76
2019-04-01T16:40:29.624Z,38.69
2019-04-01T16:42:59.665Z,38.63
2019-04-01T16:45:29.795Z,39.20
2019-04-01T16:47:59.778Z,38.99
2019-04-01T16:50:29.769Z,39.60
2019-04-01T16:53:00.987Z,39.56
2019-04-01T16:55:31.018Z,39.95
2019-04-01T16:58:01.031Z,40.08
2019-04-01T17:00:31.100Z,39.95
2019-04-01T17:03:00.937Z,40.07
2019-04-01T17:05:34.485Z,40.62
2019-04-01T17:08:04.648Z,41.30
2019-04-01T17:10:34.831Z,41.82
2019-04-01T17:13:06.279Z,41.99
2019-04-01T17:15:36.301Z,42.45
2019-04-01T17:18:06.414Z,42.52
2019-04-01T17:20:36.586Z,42.88
2019-04-01T17:23:06.949Z,42.96
2019-04-01T17:25:36.973Z,43.22
2019-04-01T17:28:13.908Z,43.50
2019-04-01T17:30:44.100Z,43.85
2019-04-01T17:33:14.114Z,43.81
2019-04-01T17:35:44.110Z,44.04
2019-04-01T17:38:14.133Z,44.44
2019-04-01T17:40:44.087Z,44.86
2019-04-01T17:43:14.207Z,44.98
2019-04-01T17:45:44.185Z,44.93
2019-04-01T17:48:14.155Z,45.33
2019-04-01T17:50:44.152Z,45.63
2019-04-01T17:53:14.564Z,45.98
2019-04-01T17:55:45.684Z,45.80
2019-04-01T17:58:15.978Z,45.72
2019-04-01T18:00:51.077Z,46.37
2019-04-01T18:03:21.685Z,46.90
2019-04-01T18:05:51.734Z,47.07
2019-04-01T18:08:21.782Z,47.53
2019-04-01T18:10:52.943Z,47.39
2019-04-01T18:13:22.779Z,47.86
2019-04-01T18:15:52.790Z,48.52
2019-04-01T18:18:27.083Z,48.91
2019-04-01T18:20:54.429Z,49.14
2019-04-01T18:23:26.284Z,49.74
2019-04-01T18:25:56.186Z,49.82
2019-04-01T18:28:26.100Z,50.20
2019-04-01T18:30:55.982Z,50.54
2019-04-01T18:33:25.834Z,50.53
2019-04-01T18:36:02.028Z,50.88
2019-04-01T18:38:33.477Z,50.41
2019-04-01T18:41:05.051Z,50.55
2019-04-01T18:43:35.369Z,50.60
2019-04-01T18:46:05.421Z,50.94
2019-04-01T18:48:37.199Z,50.78
2019-04-01T18:51:07.172Z,51.03
2019-04-01T18:53:37.032Z,51.28
2019-04-01T18:56:07.080Z,51.44
2019-04-01T18:58:37.083Z,51.61
2019-04-01T19:01:07.098Z,51.87
2019-04-01T19:03:37.113Z,52.37
2019-04-01T19:06:07.496Z,52.72
2019-04-01T19:08:37.950Z,52.92
2019-04-01T19:11:08.208Z,52.97
2019-04-01T19:13:38.173Z,53.01
2019-04-01T19:16:09.073Z,53.65
2019-04-01T19:18:40.014Z,53.69
2019-04-01T19:21:11.074Z,54.11
2019-04-01T19:23:41.639Z,54.22
2019-04-01T19:26:11.866Z,54.48
2019-04-01T19:28:42.177Z,54.84
2019-04-01T19:31:12.241Z,55.40
2019-04-01T19:33:42.898Z,55.62
2019-04-01T19:36:13.559Z,55.30
2019-04-01T19:38:45.036Z,55.77
2019-04-01T19:41:15.148Z,56.30
2019-04-01T19:43:45.671Z,56.37
2019-04-01T19:46:15.976Z,56.38
2019-04-01T19:48:46.310Z,56.47
2019-04-01T19:51:16.546Z,56.75
2019-04-01T19:53:46.604Z,56.88
2019-04-01T19:56:17.728Z,57.12
2019-04-01T19:58:47.941Z,57.05
2019-04-01T20:01:18.222Z,57.74
2019-04-01T20:03:50.638Z,57.55
2019-04-01T20:06:20.961Z,57.55
2019-04-01T20:08:50.950Z,58.35
2019-04-01T20:11:21.116Z,57.74
2019-04-01T20:13:54.865Z,58.16
2019-04-01T20:16:23.997Z,59.06
2019-04-01T20:18:53.901Z,58.72
2019-04-01T20:21:23.859Z,58.07
2019-04-01T20:23:54.957Z,58.87
2019-04-01T20:26:25.058Z,58.38
2019-04-01T20:28:55.085Z,59.10
2019-04-01T20:31:26.209Z,58.37
2019-04-01T20:33:56.334Z,58.67
2019-04-01T20:36:28.916Z,57.14
2019-04-01T20:38:57.901Z,57.14
2019-04-01T20:41:27.771Z,57.37
2019-04-01T20:43:57.626Z,56.62
2019-04-01T20:46:27.798Z,55.79
2019-04-01T20:48:57.732Z,54.98
2019-04-01T20:51:27.769Z,54.06
2019-04-01T20:53:57.794Z,54.32
2019-04-01T20:56:27.834Z,54.53
2019-04-01T20:58:57.686Z,54.54
2019-04-01T21:01:27.689Z,54.63
2019-04-01T21:03:58.812Z,54.69
2019-04-01T21:06:29.141Z,55.56
2019-04-01T21:08:59.198Z,55.84
2019-04-01T21:11:29.046Z,56.42
2019-04-01T21:13:58.955Z,56.47
2019-04-01T21:16:28.979Z,57.00
2019-04-01T21:18:58.911Z,56.83
2019-04-01T21:21:28.916Z,57.41
2019-04-01T21:23:59.854Z,57.26
2019-04-01T21:26:29.971Z,57.26
2019-04-01T21:28:59.944Z,57.72
2019-04-01T21:31:29.994Z,57.59
2019-04-01T21:33:59.972Z,57.48
2019-04-01T21:36:30.005Z,56.89
2019-04-01T21:39:01.127Z,56.83
2019-04-01T21:41:32.811Z,57.61
2019-04-01T21:44:02.796Z,57.72
2019-04-01T21:46:32.762Z,58.41
2019-04-01T21:49:02.718Z,59.37
2019-04-01T21:51:33.819Z,58.58
2019-04-01T21:54:03.757Z,58.87
2019-04-01T21:56:33.688Z,59.21
2019-04-01T21:59:03.677Z,59.15
2019-04-01T22:01:33.683Z,59.19
2019-04-01T22:04:03.541Z,59.40
2019-04-01T22:06:33.547Z,59.42
2019-04-01T22:09:06.881Z,59.02
2019-04-01T22:11:37.050Z,59.14
2019-04-01T22:14:07.061Z,59.64
2019-04-01T22:16:36.930Z,59.46
2019-04-01T22:19:06.832Z,59.94
2019-04-01T22:21:36.659Z,60.05
2019-04-01T22:24:07.771Z,60.59
2019-04-01T22:26:37.782Z,61.25
2019-04-01T22:29:07.640Z,60.89
2019-04-01T22:31:37.560Z,59.57
2019-04-01T22:34:09.029Z,59.48
2019-04-01T22:36:40.039Z,59.23
2019-04-01T22:39:10.362Z,59.03
2019-04-01T22:41:41.677Z,58.84
2019-04-01T22:44:12.877Z,58.54
2019-04-01T22:46:42.730Z,57.91
2019-04-01T22:49:12.632Z,57.70
2019-04-01T22:51:42.421Z,57.78
2019-04-01T22:54:12.260Z,57.85
2019-04-01T22:56:43.263Z,58.15
2019-04-01T22:59:13.643Z,58.63
2019-04-01T23:01:44.177Z,59.04
2019-04-01T23:04:14.829Z,59.22
2019-04-01T23:06:44.772Z,59.27
2019-04-01T23:09:14.716Z,59.03
2019-04-01T23:11:44.721Z,59.19
2019-04-01T23:14:14.682Z,59.52
2019-04-01T23:16:44.674Z,59.39
2019-04-01T23:19:14.677Z,59.32
2019-04-01T23:21:44.589Z,59.66
2019-04-01T23:24:14.569Z,59.79
2019-04-01T23:26:44.628Z,59.80
2019-04-01T23:29:14.548Z,59.95
2019-04-01T23:31:44.460Z,59.93
2019-04-01T23:34:14.500Z,60.39
2019-04-01T23:36:44.392Z,60.59
2019-04-01T23:39:14.228Z,60.34
2019-04-01T23:41:44.224Z,60.36
2019-04-01T23:44:14.131Z,60.43
2019-04-01T23:46:44.131Z,60.52
2019-04-01T23:49:13.962Z,61.09
2019-04-01T23:51:43.988Z,60.82
2019-04-01T23:54:13.946Z,60.29
2019-04-01T23:56:43.854Z,60.70
2019-04-01T23:59:13.693Z,61.14
